createdAt,value
2023-01-27T00:01:48.212Z,16.73
2023-01-27T00:04:16.596Z,16.48
2023-01-27T00:06:49.329Z,16.58
2023-01-27T00:09:18.671Z,15.32
2023-01-27T00:12:05.057Z,16.23
2023-01-27T00:14:33.913Z,16.33
2023-01-27T00:17:01.995Z,15.95
2023-01-27T00:19:30.287Z,16.02
2023-01-27T00:22:17.197Z,15.98
2023-01-27T00:24:45.315Z,16.35
2023-01-27T00:27:13.283Z,15.50
2023-01-27T00:29:41.961Z,16.30
2023-01-27T00:32:29.716Z,16.65
2023-01-27T00:34:58.318Z,16.80
2023-01-27T00:37:26.473Z,16.40
2023-01-27T00:39:54.886Z,16.52
2023-01-27T00:42:23.288Z,16.20
2023-01-27T00:45:10.007Z,17.50
2023-01-27T00:47:38.486Z,15.98
2023-01-27T00:50:07.691Z,17.33
2023-01-27T00:52:37.262Z,15.30
2023-01-27T00:55:07.306Z,15.63
2023-01-27T00:57:36.028Z,15.60
2023-01-27T01:00:09.970Z,15.80
2023-01-27T01:02:38.353Z,15.85
2023-01-27T01:05:06.974Z,16.48
2023-01-27T01:07:37.050Z,15.25
2023-01-27T01:10:06.098Z,15.75
2023-01-27T01:12:34.269Z,16.38
2023-01-27T01:15:02.466Z,16.00
2023-01-27T01:17:30.622Z,16.83
2023-01-27T01:19:59.261Z,15.95
2023-01-27T01:22:27.947Z,15.63
2023-01-27T01:24:56.096Z,15.68
2023-01-27T01:27:24.444Z,16.13
2023-01-27T01:29:52.550Z,14.85
2023-01-27T01:32:22.325Z,15.73
2023-01-27T01:34:50.365Z,16.33
2023-01-27T01:37:18.393Z,16.02
2023-01-27T01:39:46.628Z,14.60
2023-01-27T01:42:15.153Z,16.38
2023-01-27T01:44:45.622Z,16.30
2023-01-27T01:47:18.690Z,16.17
2023-01-27T01:49:48.308Z,16.20
2023-01-27T01:52:21.592Z,16.92
2023-01-27T01:54:56.438Z,16.02
2023-01-27T01:57:34.155Z,16.27
2023-01-27T02:00:09.406Z,15.70
2023-01-27T02:02:44.357Z,16.95
2023-01-27T02:05:37.109Z,15.63
2023-01-27T02:08:21.857Z,15.02
2023-01-27T02:10:51.661Z,15.77
2023-01-27T02:13:19.668Z,15.82
2023-01-27T02:15:48.287Z,16.48
2023-01-27T02:18:16.356Z,15.70
2023-01-27T02:20:54.125Z,16.10
2023-01-27T02:23:30.681Z,16.35
2023-01-27T02:26:16.830Z,14.95
2023-01-27T02:28:45.554Z,16.65
2023-01-27T02:31:14.571Z,15.00
2023-01-27T02:33:42.897Z,16.10
2023-01-27T02:36:18.404Z,15.73
2023-01-27T02:38:52.471Z,15.45
2023-01-27T02:41:32.915Z,16.45
2023-01-27T02:44:01.319Z,15.50
2023-01-27T02:46:29.907Z,15.77
2023-01-27T02:48:58.931Z,15.10
2023-01-27T02:51:27.491Z,15.52
2023-01-27T02:53:56.004Z,16.30
2023-01-27T02:56:24.159Z,15.80
2023-01-27T02:58:52.731Z,15.63
2023-01-27T03:01:28.176Z,16.17
2023-01-27T03:04:00.743Z,16.00
2023-01-27T03:06:29.532Z,15.80
2023-01-27T03:08:57.946Z,14.70
2023-01-27T03:11:44.793Z,15.60
2023-01-27T03:14:13.159Z,15.13
2023-01-27T03:17:00.080Z,15.40
2023-01-27T03:19:28.393Z,14.98
2023-01-27T03:21:56.796Z,14.48
2023-01-27T03:24:27.152Z,14.63
2023-01-27T03:29:55.563Z,14.27
2023-01-27T03:32:26.870Z,14.57
2023-01-27T03:35:16.932Z,14.53
2023-01-27T03:38:06.787Z,12.93
2023-01-27T03:40:53.932Z,14.82
2023-01-27T03:43:40.915Z,15.35
2023-01-27T03:46:19.888Z,13.13
2023-01-27T03:48:56.289Z,13.05
2023-01-27T03:51:26.278Z,13.93
2023-01-27T03:53:54.563Z,14.68
2023-01-27T03:56:23.329Z,15.38
2023-01-27T03:58:51.632Z,14.45
2023-01-27T04:01:23.933Z,14.70
2023-01-27T04:04:12.363Z,13.95
2023-01-27T04:07:01.336Z,15.20
2023-01-27T04:09:35.887Z,14.02
2023-01-27T04:12:07.037Z,14.63
2023-01-27T04:14:38.389Z,14.50
2023-01-27T04:17:16.031Z,14.10
2023-01-27T04:19:47.275Z,14.70
2023-01-27T04:22:16.657Z,13.95
2023-01-27T04:24:44.827Z,14.13
2023-01-27T04:27:20.549Z,14.75
2023-01-27T04:29:48.609Z,15.23
2023-01-27T04:32:16.660Z,15.73
2023-01-27T04:34:45.577Z,15.18
2023-01-27T04:37:13.783Z,15.38
2023-01-27T04:39:42.220Z,14.80
2023-01-27T04:42:10.438Z,16.00
2023-01-27T04:44:38.790Z,15.15
2023-01-27T04:47:06.820Z,15.13
2023-01-27T04:49:34.844Z,14.32
2023-01-27T04:52:03.202Z,13.93
2023-01-27T04:54:31.539Z,14.77
2023-01-27T04:57:03.842Z,14.40
2023-01-27T04:59:32.077Z,13.90
2023-01-27T05:02:00.058Z,13.48
2023-01-27T05:04:28.982Z,14.32
2023-01-27T05:06:57.223Z,13.77
2023-01-27T05:09:26.063Z,13.90
2023-01-27T05:11:54.442Z,14.07
2023-01-27T05:14:23.785Z,13.55
2023-01-27T05:16:51.953Z,13.68
2023-01-27T05:19:20.306Z,14.70
2023-01-27T05:21:48.405Z,14.23
2023-01-27T05:24:16.427Z,13.77
2023-01-27T05:26:44.964Z,14.48
2023-01-27T05:29:13.246Z,14.52
2023-01-27T05:31:41.745Z,14.02
2023-01-27T05:34:10.888Z,15.10
2023-01-27T05:36:39.341Z,13.93
2023-01-27T05:39:08.980Z,15.68
2023-01-27T05:41:38.005Z,13.95
2023-01-27T05:44:06.660Z,15.27
2023-01-27T05:46:38.489Z,14.68
2023-01-27T05:49:07.553Z,14.25
2023-01-27T05:51:40.141Z,14.02
2023-01-27T05:54:09.749Z,13.77
2023-01-27T05:56:38.043Z,13.98
2023-01-27T05:59:06.616Z,15.35
2023-01-27T06:01:35.849Z,14.27
2023-01-27T06:04:04.825Z,15.15
2023-01-27T06:06:34.165Z,15.25
2023-01-27T06:09:02.550Z,14.18
2023-01-27T06:11:30.814Z,14.80
2023-01-27T06:13:58.958Z,15.15
2023-01-27T06:16:27.669Z,16.08
2023-01-27T06:18:55.712Z,14.43
2023-01-27T06:21:23.644Z,16.67
2023-01-27T06:23:53.727Z,15.55
2023-01-27T06:26:22.137Z,14.77
2023-01-27T06:28:50.196Z,14.60
2023-01-27T06:31:22.423Z,15.25
2023-01-27T06:33:51.806Z,15.23
2023-01-27T06:36:22.178Z,13.77
2023-01-27T06:38:51.450Z,14.98
2023-01-27T06:41:20.610Z,14.88
2023-01-27T06:43:48.749Z,14.70
2023-01-27T06:46:17.030Z,13.35
2023-01-27T06:48:45.133Z,15.18
2023-01-27T06:51:13.539Z,14.38
2023-01-27T06:53:42.863Z,14.75
2023-01-27T06:56:11.398Z,14.52
2023-01-27T06:58:39.460Z,15.82
2023-01-27T07:01:08.094Z,14.80
2023-01-27T07:03:37.422Z,16.30
2023-01-27T07:06:05.999Z,16.45
2023-01-27T07:08:34.455Z,15.35
2023-01-27T07:11:05.321Z,16.40
2023-01-27T07:13:33.490Z,14.57
2023-01-27T07:16:02.170Z,14.88
2023-01-27T07:18:30.567Z,15.68
2023-01-27T07:20:59.085Z,15.52
2023-01-27T07:23:27.598Z,15.68
2023-01-27T07:25:56.169Z,15.35
2023-01-27T07:28:24.204Z,13.82
2023-01-27T07:30:52.537Z,14.40
2023-01-27T07:33:20.732Z,14.93
2023-01-27T07:35:50.084Z,13.90
2023-01-27T07:38:18.695Z,15.02
2023-01-27T07:40:47.794Z,15.88
2023-01-27T07:43:16.237Z,15.30
2023-01-27T07:45:44.732Z,14.77
2023-01-27T07:48:13.076Z,13.50
2023-01-27T07:50:44.648Z,13.90
2023-01-27T07:53:12.989Z,15.43
2023-01-27T07:55:41.500Z,15.48
2023-01-27T07:58:10.113Z,15.70
2023-01-27T08:00:38.497Z,16.08
2023-01-27T08:03:06.955Z,16.15
2023-01-27T08:05:37.715Z,15.48
2023-01-27T08:08:06.289Z,17.00
2023-01-27T08:10:34.358Z,17.48
2023-01-27T08:13:02.692Z,16.50
2023-01-27T08:15:30.822Z,16.38
2023-01-27T08:18:00.011Z,16.52
2023-01-27T08:20:29.100Z,15.55
2023-01-27T08:22:57.573Z,15.82
2023-01-27T08:25:26.463Z,15.10
2023-01-27T08:27:56.908Z,14.25
2023-01-27T08:30:25.784Z,14.85
2023-01-27T08:32:54.203Z,15.45
2023-01-27T08:35:22.552Z,15.55
2023-01-27T08:37:51.781Z,16.60
2023-01-27T08:40:21.633Z,15.10
2023-01-27T08:42:51.384Z,15.98
2023-01-27T08:45:20.047Z,16.45
2023-01-27T08:47:49.328Z,16.08
2023-01-27T08:50:18.059Z,15.68
2023-01-27T08:52:46.207Z,15.45
2023-01-27T08:55:15.535Z,16.20
2023-01-27T08:57:44.273Z,15.05
2023-01-27T09:00:13.763Z,14.10
2023-01-27T09:02:42.271Z,12.95
2023-01-27T09:05:11.379Z,13.63
2023-01-27T09:07:39.928Z,11.98
2023-01-27T09:10:14.699Z,10.48
2023-01-27T09:12:44.764Z,7.95
2023-01-27T09:15:14.872Z,7.90
2023-01-27T09:17:43.354Z,6.60
2023-01-27T09:20:14.172Z,7.03
2023-01-27T09:22:43.004Z,7.43
2023-01-27T09:25:17.943Z,6.80
2023-01-27T09:27:47.079Z,7.47
2023-01-27T09:30:16.933Z,6.68
2023-01-27T09:32:45.345Z,7.28
2023-01-27T09:35:13.923Z,6.97
2023-01-27T09:37:58.188Z,6.63
2023-01-27T09:40:37.800Z,6.55
2023-01-27T09:43:39.475Z,6.07
2023-01-27T09:46:28.132Z,7.13
2023-01-27T09:49:32.917Z,6.30
2023-01-27T09:52:24.272Z,6.90
2023-01-27T09:55:14.671Z,6.45
2023-01-27T09:58:39.358Z,7.13
2023-01-27T10:01:30.070Z,7.70
2023-01-27T10:04:35.749Z,7.05
2023-01-27T10:07:22.237Z,6.88
2023-01-27T10:10:05.099Z,7.22
2023-01-27T10:13:17.444Z,8.18
2023-01-27T10:15:56.881Z,7.65
2023-01-27T10:18:57.099Z,6.85
2023-01-27T10:21:43.404Z,6.65
2023-01-27T10:24:51.023Z,7.40
2023-01-27T10:27:24.688Z,6.00
2023-01-27T10:30:37.156Z,7.70
2023-01-27T10:33:28.582Z,7.90
2023-01-27T10:36:05.897Z,7.00
2023-01-27T10:39:16.668Z,7.55
2023-01-27T10:42:16.179Z,6.78
2023-01-27T10:45:37.856Z,6.00
2023-01-27T10:48:26.565Z,6.38
2023-01-27T10:51:24.307Z,7.07
2023-01-27T10:54:23.277Z,6.85
2023-01-27T10:56:56.371Z,7.72
2023-01-27T10:59:32.229Z,7.22
2023-01-27T11:02:10.097Z,7.20
2023-01-27T11:04:51.814Z,8.82
2023-01-27T11:09:53.926Z,7.32
2023-01-27T11:12:35.912Z,7.03
2023-01-27T11:15:34.177Z,8.30
2023-01-27T11:18:10.837Z,8.05
2023-01-27T11:20:55.504Z,7.43
2023-01-27T11:23:49.099Z,15.05
2023-01-27T11:26:44.964Z,13.73
2023-01-27T11:29:39.892Z,7.97
2023-01-27T11:32:50.567Z,8.75
2023-01-27T11:35:18.728Z,8.73
2023-01-27T11:37:53.712Z,7.22
2023-01-27T11:40:42.463Z,8.48
2023-01-27T11:43:22.017Z,8.23
2023-01-27T11:45:52.914Z,7.57
2023-01-27T11:48:23.429Z,7.38
2023-01-27T11:50:52.932Z,6.85
2023-01-27T11:53:36.941Z,8.48
2023-01-27T11:56:15.991Z,8.30
2023-01-27T11:59:02.293Z,7.38
2023-01-27T12:02:02.577Z,7.25
2023-01-27T12:04:55.891Z,7.05
2023-01-27T12:08:00.301Z,6.85
2023-01-27T12:10:36.901Z,7.25
2023-01-27T12:13:24.924Z,7.30
2023-01-27T12:16:02.894Z,6.78
2023-01-27T12:18:36.505Z,7.03
2023-01-27T12:21:09.184Z,6.63
2023-01-27T12:23:47.537Z,7.97
2023-01-27T12:26:37.526Z,8.65
2023-01-27T12:29:16.972Z,7.38
2023-01-27T12:31:49.628Z,6.50
2023-01-27T12:34:37.636Z,6.50
2023-01-27T12:37:07.893Z,6.80
2023-01-27T12:39:50.555Z,10.35
2023-01-27T12:42:38.981Z,8.07
2023-01-27T12:45:26.991Z,6.10
2023-01-27T12:48:21.826Z,6.35
2023-01-27T12:50:55.814Z,6.30
2023-01-27T12:53:27.991Z,7.28
2023-01-27T12:56:12.486Z,6.20
2023-01-27T12:58:56.773Z,6.75
2023-01-27T13:01:38.575Z,6.18
2023-01-27T13:04:20.278Z,6.43
2023-01-27T13:07:01.864Z,10.55
2023-01-27T13:09:35.493Z,6.53
2023-01-27T13:12:28.648Z,8.98
2023-01-27T13:15:06.115Z,6.28
2023-01-27T13:17:46.376Z,5.05
2023-01-27T13:20:38.023Z,6.78
2023-01-27T13:23:20.488Z,7.63
2023-01-27T13:26:26.331Z,10.60
2023-01-27T13:29:06.091Z,10.30
2023-01-27T13:31:46.359Z,6.57
2023-01-27T13:34:39.072Z,5.97
2023-01-27T13:37:17.263Z,5.85
2023-01-27T13:40:05.267Z,5.78
2023-01-27T13:42:40.282Z,6.95
2023-01-27T13:45:21.836Z,6.95
2023-01-27T13:48:22.624Z,8.10
2023-01-27T13:50:59.389Z,7.65
2023-01-27T13:53:27.839Z,8.63
2023-01-27T13:56:36.355Z,8.98
2023-01-27T13:59:04.880Z,11.68
2023-01-27T14:02:23.230Z,10.65
2023-01-27T14:05:44.748Z,7.50
2023-01-27T14:08:16.001Z,8.88
2023-01-27T14:11:11.513Z,7.38
2023-01-27T14:14:02.935Z,8.45
2023-01-27T14:17:04.635Z,8.30
2023-01-27T14:20:18.785Z,8.10
2023-01-27T14:23:14.609Z,8.63
2023-01-27T14:26:15.348Z,8.10
2023-01-27T14:29:05.761Z,8.23
2023-01-27T14:31:48.083Z,8.18
2023-01-27T14:34:45.432Z,8.40
2023-01-27T14:37:44.455Z,8.38
2023-01-27T14:40:57.838Z,7.78
2023-01-27T14:43:58.960Z,9.23
2023-01-27T14:47:09.294Z,8.03
2023-01-27T14:50:22.695Z,7.85
2023-01-27T14:53:35.057Z,9.10
2023-01-27T14:56:29.770Z,9.07
2023-01-27T14:59:44.238Z,8.55
2023-01-27T15:02:46.798Z,8.88
2023-01-27T15:05:31.873Z,8.95
2023-01-27T15:08:33.065Z,8.27
2023-01-27T15:11:31.027Z,9.00
2023-01-27T15:14:40.802Z,8.50
2023-01-27T15:18:09.498Z,7.95
2023-01-27T15:21:08.713Z,7.80
2023-01-27T15:24:04.416Z,8.00
2023-01-27T15:26:36.108Z,7.38
2023-01-27T15:29:05.508Z,7.82
2023-01-27T15:31:33.933Z,8.07
2023-01-27T15:34:05.104Z,7.95
2023-01-27T15:36:38.783Z,5.57
2023-01-27T15:39:10.561Z,8.38
2023-01-27T15:44:34.249Z,7.93
2023-01-27T15:47:14.843Z,7.72
2023-01-27T15:49:48.947Z,7.25
2023-01-27T15:52:49.801Z,7.55
2023-01-27T15:55:31.003Z,7.53
2023-01-27T15:58:50.321Z,8.52
2023-01-27T16:01:31.631Z,7.53
2023-01-27T16:04:12.354Z,7.68
2023-01-27T16:07:02.631Z,8.52
2023-01-27T16:09:49.031Z,10.10
2023-01-27T16:12:23.431Z,8.38
2023-01-27T16:15:31.477Z,9.27
2023-01-27T16:18:02.788Z,10.15
2023-01-27T16:23:51.722Z,9.52
2023-01-27T16:26:42.738Z,9.80
2023-01-27T16:29:37.565Z,9.80
2023-01-27T16:32:22.377Z,9.27
2023-01-27T16:34:56.719Z,9.65
2023-01-27T16:37:33.115Z,9.55
2023-01-27T16:40:17.198Z,10.95
2023-01-27T16:42:54.486Z,10.77
2023-01-27T16:45:30.971Z,10.57
2023-01-27T16:48:16.321Z,10.07
2023-01-27T16:50:45.640Z,9.32
2023-01-27T16:53:24.558Z,9.73
2023-01-27T16:56:22.997Z,9.82
2023-01-27T16:59:00.193Z,10.15
2023-01-27T17:01:43.358Z,10.18
2023-01-27T17:04:26.679Z,9.85
2023-01-27T17:07:11.740Z,9.45
2023-01-27T17:09:53.945Z,9.80
2023-01-27T17:15:22.248Z,9.95
2023-01-27T17:17:52.800Z,9.73
2023-01-27T17:20:36.009Z,10.13
2023-01-27T17:23:06.336Z,10.13
2023-01-27T17:25:38.077Z,9.60
2023-01-27T17:30:47.230Z,10.82
2023-01-27T17:33:21.961Z,9.93
2023-01-27T17:35:59.173Z,10.52
2023-01-27T17:38:51.977Z,9.50
2023-01-27T17:41:37.576Z,10.13
2023-01-27T17:44:15.710Z,10.00
2023-01-27T17:46:45.507Z,10.50
2023-01-27T17:49:18.970Z,10.35
2023-01-27T17:51:55.921Z,10.93
2023-01-27T17:54:35.803Z,10.35
2023-01-27T17:57:24.751Z,10.45
2023-01-27T18:00:37.618Z,9.63
2023-01-27T18:03:17.413Z,9.85
2023-01-27T18:05:49.628Z,9.73
2023-01-27T18:08:19.738Z,9.60
2023-01-27T18:10:48.520Z,9.40
2023-01-27T18:13:19.693Z,9.80
2023-01-27T18:16:19.041Z,9.25
2023-01-27T18:18:50.015Z,9.75
2023-01-27T18:21:27.606Z,9.45
2023-01-27T18:24:03.065Z,8.98
2023-01-27T18:26:43.815Z,9.60
2023-01-27T18:29:27.808Z,9.95
2023-01-27T18:32:19.949Z,9.15
2023-01-27T18:37:28.798Z,8.82
2023-01-27T18:40:05.834Z,7.72
2023-01-27T18:42:34.858Z,8.02
2023-01-27T18:45:03.769Z,9.07
2023-01-27T18:47:37.974Z,8.30
2023-01-27T18:50:20.114Z,8.52
2023-01-27T18:52:50.474Z,8.82
2023-01-27T18:55:29.327Z,8.98
2023-01-27T18:58:00.424Z,8.85
2023-01-27T19:00:52.912Z,8.90
2023-01-27T19:03:25.484Z,7.95
2023-01-27T19:05:55.384Z,9.15
2023-01-27T19:08:25.530Z,8.68
2023-01-27T19:10:55.071Z,8.50
2023-01-27T19:13:24.572Z,8.20
2023-01-27T19:15:58.948Z,9.13
2023-01-27T19:18:36.084Z,8.20
2023-01-27T19:21:06.440Z,8.65
2023-01-27T19:23:35.829Z,7.65
2023-01-27T19:26:11.989Z,8.32
2023-01-27T19:28:41.501Z,7.65
2023-01-27T19:31:11.336Z,7.82
2023-01-27T19:33:45.549Z,7.13
2023-01-27T19:36:43.519Z,7.38
2023-01-27T19:39:25.199Z,7.68
2023-01-27T19:41:58.550Z,6.72
2023-01-27T19:44:32.130Z,6.60
2023-01-27T19:47:05.305Z,7.25
2023-01-27T19:49:37.618Z,7.53
2023-01-27T19:52:09.456Z,7.57
2023-01-27T19:54:38.762Z,7.72
2023-01-27T19:57:16.061Z,7.60
2023-01-27T19:59:45.992Z,8.10
2023-01-27T20:02:15.051Z,7.13
2023-01-27T20:04:44.105Z,6.65
2023-01-27T20:07:14.264Z,7.63
2023-01-27T20:09:43.952Z,6.93
2023-01-27T20:12:16.651Z,7.05
2023-01-27T20:14:46.007Z,7.68
2023-01-27T20:17:15.559Z,6.88
2023-01-27T20:19:48.179Z,6.97
2023-01-27T20:22:17.357Z,6.82
2023-01-27T20:24:46.164Z,6.60
2023-01-27T20:27:15.300Z,7.28
2023-01-27T20:29:46.343Z,7.63
2023-01-27T20:32:16.494Z,6.70
2023-01-27T20:34:46.224Z,6.65
2023-01-27T20:37:15.022Z,6.70
2023-01-27T20:39:44.323Z,7.60
2023-01-27T20:42:13.530Z,6.78
2023-01-27T20:44:42.699Z,7.05
2023-01-27T20:47:13.734Z,6.63
2023-01-27T20:49:44.613Z,6.00
2023-01-27T20:52:13.956Z,7.68
2023-01-27T20:54:42.805Z,6.85
2023-01-27T20:57:11.901Z,6.78
2023-01-27T20:59:42.598Z,7.68
2023-01-27T21:02:13.585Z,6.60
2023-01-27T21:04:43.213Z,7.57
2023-01-27T21:07:14.243Z,7.35
2023-01-27T21:09:44.264Z,6.90
2023-01-27T21:12:13.925Z,7.45
2023-01-27T21:14:43.427Z,7.18
2023-01-27T21:17:12.840Z,6.32
2023-01-27T21:19:42.401Z,6.68
2023-01-27T21:22:11.004Z,6.45
2023-01-27T21:24:41.281Z,6.85
2023-01-27T21:27:14.383Z,6.72
2023-01-27T21:29:44.428Z,6.38
2023-01-27T21:32:13.545Z,6.50
2023-01-27T21:34:42.640Z,6.80
2023-01-27T21:37:11.261Z,6.97
2023-01-27T21:39:40.824Z,6.45
2023-01-27T21:42:18.633Z,5.97
2023-01-27T21:45:06.309Z,6.57
2023-01-27T21:47:35.472Z,5.50
2023-01-27T21:50:07.152Z,6.60
2023-01-27T21:52:51.057Z,5.88
2023-01-27T21:55:24.546Z,6.53
2023-01-27T21:57:56.073Z,6.85
2023-01-27T22:00:29.912Z,6.55
2023-01-27T22:03:03.450Z,6.35
2023-01-27T22:05:34.161Z,6.40
2023-01-27T22:08:03.393Z,6.78
2023-01-27T22:10:32.987Z,6.32
2023-01-27T22:13:04.229Z,5.88
2023-01-27T22:15:33.229Z,5.85
2023-01-27T22:18:02.213Z,6.18
2023-01-27T22:20:30.731Z,5.63
2023-01-27T22:23:00.413Z,6.97
2023-01-27T22:25:31.553Z,6.22
2023-01-27T22:28:04.052Z,6.18
2023-01-27T22:30:33.046Z,6.00
2023-01-27T22:33:02.387Z,5.65
2023-01-27T22:35:31.872Z,6.35
2023-01-27T22:38:03.189Z,6.45
2023-01-27T22:40:32.712Z,6.32
2023-01-27T22:43:01.688Z,6.75
2023-01-27T22:45:30.339Z,6.05
2023-01-27T22:47:59.278Z,5.97
2023-01-27T22:50:28.059Z,6.35
2023-01-27T22:52:57.547Z,6.10
2023-01-27T22:55:27.644Z,5.45
2023-01-27T22:57:57.240Z,6.50
2023-01-27T23:00:25.941Z,5.93
2023-01-27T23:02:54.827Z,6.15
2023-01-27T23:05:23.668Z,5.30
2023-01-27T23:07:52.297Z,5.70
2023-01-27T23:10:21.131Z,5.75
2023-01-27T23:12:51.159Z,5.32
2023-01-27T23:15:19.315Z,5.30
2023-01-27T23:17:49.556Z,4.97
2023-01-27T23:20:18.177Z,5.75
2023-01-27T23:22:46.423Z,5.05
2023-01-27T23:25:15.752Z,5.43
2023-01-27T23:27:44.145Z,4.80
2023-01-27T23:30:12.767Z,4.57
2023-01-27T23:32:41.173Z,4.65
2023-01-27T23:35:10.299Z,4.70
2023-01-27T23:37:38.632Z,5.72
2023-01-27T23:40:08.343Z,4.97
2023-01-27T23:42:37.128Z,4.70
2023-01-27T23:45:05.941Z,5.20
2023-01-27T23:47:34.720Z,4.97
2023-01-27T23:50:03.842Z,5.40
2023-01-27T23:52:36.193Z,4.75
2023-01-27T23:55:06.835Z,5.30
2023-01-27T23:57:35.104Z,4.72
